createdAt,value
2022-10-02T00:02:03.376Z,98931.55
2022-10-02T00:07:10.383Z,98932.83
2022-10-02T00:12:18.806Z,98931.46
2022-10-02T00:17:27.646Z,98936.13
2022-10-02T00:22:42.884Z,98934.98
2022-10-02T00:27:54.833Z,98937.17
2022-10-02T00:32:58.363Z,98940.73
2022-10-02T00:38:13.554Z,98944.14
2022-10-02T00:43:41.646Z,98945.44
2022-10-02T00:49:00.522Z,98941.20
2022-10-02T00:54:20.626Z,98944.06
2022-10-02T00:59:29.569Z,98947.16
2022-10-02T01:04:35.665Z,98945.77
2022-10-02T01:09:40.518Z,98947.66
2022-10-02T01:14:43.700Z,98950.33
2022-10-02T01:19:47.009Z,98951.73
2022-10-02T01:24:54.866Z,98956.30
2022-10-02T01:30:11.859Z,98957.85
2022-10-02T01:35:16.279Z,98960.66
2022-10-02T01:40:27.698Z,98963.98
2022-10-02T01:45:55.920Z,98971.95
2022-10-02T01:51:26.952Z,98977.16
2022-10-02T01:56:45.213Z,98988.54
2022-10-02T02:02:26.172Z,98993.35
2022-10-02T02:07:41.702Z,98995.13
2022-10-02T02:13:03.343Z,99004.42
2022-10-02T02:18:09.417Z,99004.98
2022-10-02T02:23:17.644Z,99007.75
2022-10-02T02:28:23.737Z,99009.06
2022-10-02T02:33:33.687Z,99011.81
2022-10-02T02:38:42.629Z,99012.26
2022-10-02T02:43:53.518Z,99009.72
2022-10-02T02:49:10.141Z,99013.70
2022-10-02T02:54:21.848Z,99014.94
2022-10-02T02:59:29.359Z,99016.67
2022-10-02T03:04:32.673Z,99018.34
2022-10-02T03:09:37.722Z,99018.58
2022-10-02T03:14:53.119Z,99017.70
2022-10-02T03:19:59.293Z,99014.64
2022-10-02T03:25:32.300Z,99020.42
2022-10-02T03:30:37.861Z,99022.30
2022-10-02T03:35:42.711Z,99024.31
2022-10-02T03:40:46.123Z,99022.05
2022-10-02T03:45:51.838Z,99020.26
2022-10-02T03:50:55.612Z,99024.87
2022-10-02T03:56:23.191Z,99024.77
2022-10-02T04:01:32.891Z,99026.67
2022-10-02T04:06:42.819Z,99029.63
2022-10-02T04:12:00.465Z,99025.71
2022-10-02T04:17:10.839Z,99029.73
2022-10-02T04:22:56.241Z,99035.49
2022-10-02T04:28:17.738Z,99033.05
2022-10-02T04:33:23.546Z,99037.76
2022-10-02T04:38:53.175Z,99043.83
2022-10-02T04:44:24.233Z,99042.77
2022-10-02T04:49:32.974Z,99048.98
2022-10-02T04:54:54.714Z,99050.34
2022-10-02T05:00:15.912Z,99054.10
2022-10-02T05:05:25.708Z,99062.95
2022-10-02T05:10:34.751Z,99064.09
2022-10-02T05:15:55.513Z,99070.93
2022-10-02T05:21:53.364Z,99075.35
2022-10-02T05:26:59.541Z,99071.69
2022-10-02T05:32:24.765Z,99079.83
2022-10-02T05:38:07.435Z,99077.48
2022-10-02T05:43:27.709Z,99087.13
2022-10-02T05:48:37.877Z,99091.34
2022-10-02T05:54:00.032Z,99094.02
2022-10-02T05:59:12.765Z,99100.52
2022-10-02T06:04:16.995Z,99102.15
2022-10-02T06:09:25.939Z,99106.08
2022-10-02T06:14:38.668Z,99115.88
2022-10-02T06:19:54.675Z,99117.83
2022-10-02T06:25:01.686Z,99125.98
2022-10-02T06:30:10.622Z,99122.21
2022-10-02T06:35:17.387Z,99128.38
2022-10-02T06:40:52.974Z,99128.23
2022-10-02T06:46:23.320Z,99131.20
2022-10-02T06:51:54.597Z,99133.33
2022-10-02T06:57:00.768Z,99134.85
2022-10-02T07:02:04.194Z,99142.75
2022-10-02T07:07:49.573Z,99147.06
2022-10-02T07:13:15.106Z,99146.61
2022-10-02T07:18:53.341Z,99153.66
2022-10-02T07:24:42.010Z,99152.97
2022-10-02T07:29:57.303Z,99151.86
2022-10-02T07:35:08.498Z,99153.48
2022-10-02T07:40:17.338Z,99154.97
2022-10-02T07:45:39.324Z,99155.21
2022-10-02T07:51:27.344Z,99161.23
2022-10-02T07:56:32.366Z,99155.73
2022-10-02T08:01:38.808Z,99160.89
2022-10-02T08:06:42.719Z,99163.77
2022-10-02T08:12:03.426Z,99171.27
2022-10-02T08:17:32.744Z,99177.02
2022-10-02T08:22:51.723Z,99174.92
2022-10-02T08:28:16.500Z,99176.89
2022-10-02T08:33:22.020Z,99177.19
2022-10-02T08:38:57.258Z,99181.79
2022-10-02T08:44:12.345Z,99190.98
2022-10-02T08:49:40.437Z,99191.02
2022-10-02T08:54:55.215Z,99186.31
2022-10-02T09:00:25.158Z,99188.25
2022-10-02T09:05:53.140Z,99179.89
2022-10-02T09:11:02.495Z,99179.21
2022-10-02T09:16:50.501Z,99184.08
2022-10-02T09:22:48.647Z,99178.56
2022-10-02T09:28:18.036Z,99188.95
2022-10-02T09:33:40.227Z,99185.92
2022-10-02T09:39:14.562Z,99189.89
2022-10-02T09:44:32.720Z,99185.79
2022-10-02T09:50:12.996Z,99189.30
2022-10-02T09:55:50.306Z,99191.59
2022-10-02T10:01:02.175Z,99186.81
2022-10-02T10:06:18.020Z,99187.48
2022-10-02T10:11:36.767Z,99192.30
2022-10-02T10:16:52.700Z,99192.16
2022-10-02T10:22:27.242Z,99195.46
2022-10-02T10:27:52.603Z,99192.94
2022-10-02T10:33:24.680Z,99201.64
2022-10-02T10:39:01.044Z,99195.67
2022-10-02T10:44:29.084Z,99187.88
2022-10-02T10:50:03.981Z,99187.48
2022-10-02T10:55:38.423Z,99181.79
2022-10-02T11:00:42.096Z,99187.33
2022-10-02T11:06:10.758Z,99180.25
2022-10-02T11:11:41.708Z,99176.73
2022-10-02T11:17:19.325Z,99174.77
2022-10-02T11:22:41.581Z,99168.98
2022-10-02T11:28:09.928Z,99168.29
2022-10-02T11:33:55.169Z,99172.42
2022-10-02T11:39:01.039Z,99174.16
2022-10-02T11:44:12.952Z,99172.89
2022-10-02T11:49:45.758Z,99172.01
2022-10-02T11:54:55.950Z,99175.98
2022-10-02T12:00:34.565Z,99177.48
2022-10-02T12:05:53.695Z,99177.48
2022-10-02T12:11:12.419Z,99178.77
2022-10-02T12:16:57.597Z,99177.40
2022-10-02T12:22:22.533Z,99176.98
2022-10-02T12:27:37.267Z,99185.66
2022-10-02T12:32:59.257Z,99196.45
2022-10-02T12:38:30.158Z,99210.05
2022-10-02T12:43:45.508Z,99208.09
2022-10-02T12:49:00.390Z,99205.34
2022-10-02T12:54:24.588Z,99184.36
2022-10-02T13:00:00.360Z,99175.05
2022-10-02T13:05:09.611Z,99173.86
2022-10-02T13:10:35.142Z,99175.17
2022-10-02T13:16:03.029Z,99177.39
2022-10-02T13:21:39.235Z,99173.26
2022-10-02T13:26:54.298Z,99167.26
2022-10-02T13:32:21.466Z,99164.52
2022-10-02T13:38:03.898Z,99159.31
2022-10-02T13:43:20.722Z,99167.27
2022-10-02T13:48:34.386Z,99172.38
2022-10-02T13:54:08.509Z,99174.29
2022-10-02T13:59:39.410Z,99190.45
2022-10-02T14:05:02.646Z,99190.72
2022-10-02T14:10:05.800Z,99171.61
2022-10-02T14:15:28.517Z,99162.79
2022-10-02T14:20:46.729Z,99160.04
2022-10-02T14:26:05.858Z,99157.82
2022-10-02T14:31:25.483Z,99157.14
2022-10-02T14:36:49.857Z,99156.98
2022-10-02T14:42:14.909Z,99159.59
2022-10-02T14:47:23.824Z,99160.41
2022-10-02T14:52:56.591Z,99163.49
2022-10-02T14:58:22.258Z,99170.05
2022-10-02T15:03:25.366Z,99173.01
2022-10-02T15:08:40.346Z,99183.83
2022-10-02T15:13:51.645Z,99193.62
2022-10-02T15:19:10.110Z,99203.27
2022-10-02T15:24:33.932Z,99215.53
2022-10-02T15:30:02.818Z,99216.80
2022-10-02T15:35:06.342Z,99212.38
2022-10-02T15:40:19.577Z,99208.80
2022-10-02T15:45:39.828Z,99192.75
2022-10-02T15:51:12.172Z,99190.59
2022-10-02T15:56:39.091Z,99184.34
2022-10-02T16:02:06.909Z,99179.27
2022-10-02T16:07:37.784Z,99172.77
2022-10-02T16:13:02.183Z,99171.66
2022-10-02T16:18:20.550Z,99170.85
2022-10-02T16:23:44.855Z,99171.56
2022-10-02T16:29:05.979Z,99171.97
2022-10-02T16:34:24.144Z,99174.77
2022-10-02T16:39:27.451Z,99174.62
2022-10-02T16:44:48.475Z,99173.85
2022-10-02T16:50:03.048Z,99172.41
2022-10-02T16:55:21.312Z,99165.45
2022-10-02T17:00:51.106Z,99162.23
2022-10-02T17:06:18.722Z,99165.39
2022-10-02T17:11:44.868Z,99169.96
2022-10-02T17:16:52.652Z,99174.87
2022-10-02T17:22:12.072Z,99174.88
2022-10-02T17:27:33.720Z,99180.67
2022-10-02T17:32:50.443Z,99181.98
2022-10-02T17:38:07.574Z,99182.47
2022-10-02T17:43:41.648Z,99180.45
2022-10-02T17:49:03.606Z,99179.88
2022-10-02T17:54:57.770Z,99180.62
2022-10-02T18:00:10.487Z,99183.50
2022-10-02T18:05:48.103Z,99178.61
2022-10-02T18:11:21.997Z,99181.69
2022-10-02T18:16:48.523Z,99178.80
2022-10-02T18:22:27.328Z,99177.84
2022-10-02T18:27:43.848Z,99174.14
2022-10-02T18:33:10.199Z,99174.52
2022-10-02T18:38:23.634Z,99174.73
2022-10-02T18:44:09.476Z,99176.45
2022-10-02T18:49:38.784Z,99176.80
2022-10-02T18:55:26.751Z,99176.79
2022-10-02T19:01:00.814Z,99174.73
2022-10-02T19:06:14.313Z,99176.31
2022-10-02T19:11:19.269Z,99177.77
2022-10-02T19:16:27.519Z,99178.39
2022-10-02T19:21:34.895Z,99174.63
2022-10-02T19:26:44.284Z,99174.70
2022-10-02T19:31:47.889Z,99176.20
2022-10-02T19:36:54.684Z,99176.85
2022-10-02T19:42:03.502Z,99168.85
2022-10-02T19:47:32.821Z,99165.30
2022-10-02T19:52:51.388Z,99160.61
2022-10-02T19:58:04.743Z,99157.05
2022-10-02T20:03:15.886Z,99161.90
2022-10-02T20:08:29.182Z,99158.16
2022-10-02T20:13:46.208Z,99158.42
2022-10-02T20:18:52.387Z,99155.19
2022-10-02T20:23:58.494Z,99155.95
2022-10-02T20:29:14.662Z,99153.33
2022-10-02T20:34:37.235Z,99149.76
2022-10-02T20:39:51.405Z,99144.40
2022-10-02T20:44:54.610Z,99148.47
2022-10-02T20:50:40.727Z,99145.91
2022-10-02T20:56:09.534Z,99150.12
2022-10-02T21:01:47.968Z,99143.81
2022-10-02T21:07:05.727Z,99130.04
2022-10-02T21:12:39.043Z,99134.45
2022-10-02T21:17:54.426Z,99131.39
2022-10-02T21:23:29.561Z,99130.98
2022-10-02T21:29:03.102Z,99122.31
2022-10-02T21:34:35.494Z,99124.44
2022-10-02T21:40:25.294Z,99120.09
2022-10-02T21:45:57.893Z,99116.70
2022-10-02T21:51:28.647Z,99112.73
2022-10-02T21:57:02.884Z,99109.65
2022-10-02T22:02:37.528Z,99106.75
2022-10-02T22:08:14.734Z,99107.60
2022-10-02T22:13:39.412Z,99110.17
2022-10-02T22:19:06.819Z,99105.70
2022-10-02T22:24:30.346Z,99108.01
2022-10-02T22:29:52.570Z,99107.22
2022-10-02T22:35:09.283Z,99104.16
2022-10-02T22:40:23.586Z,99103.73
2022-10-02T22:45:39.664Z,99106.60
2022-10-02T22:51:12.362Z,99098.89
2022-10-02T22:56:30.625Z,99100.66
2022-10-02T23:01:43.401Z,99103.19
2022-10-02T23:06:55.166Z,99100.02
2022-10-02T23:12:08.920Z,99101.75
2022-10-02T23:17:34.655Z,99091.31
2022-10-02T23:22:46.468Z,99080.77
2022-10-02T23:28:25.490Z,99078.02
2022-10-02T23:33:52.789Z,99083.68
2022-10-02T23:39:10.640Z,99083.71
2022-10-02T23:44:19.382Z,99083.61
2022-10-02T23:49:32.215Z,99090.55
2022-10-02T23:54:38.389Z,99085.96
2022-10-02T23:59:55.457Z,99082.70
